Time;durP1;ratioP1;P1;durP2;ratioP2;P2;SDS_P1;SDS_P2;PMS_P1;PMS_P2;Temp;Humidity;BMP_temperature;BMP_pressure;BME280_temperature;BME280_humidity;BME280_pressure;Samples;Min_cycle;Max_cycle;Signal;HPM_P1;HPM_P2
2022/02/16 00:01:06;;;;;;;25.63;12.50;;;;;;;-2.40;100.00;100351.36;1673176;86;21087;-83
2022/02/16 00:03:34;;;;;;;25.10;12.57;;;;;;;-2.42;100.00;100342.64;1676786;84;21075;-82
2022/02/16 00:06:01;;;;;;;23.93;11.80;;;;;;;-2.44;100.00;100341.87;1703671;84;21055;-84
2022/02/16 00:08:28;;;;;;;24.93;12.57;;;;;;;-2.48;100.00;100329.70;1703889;84;21028;-83
2022/02/16 00:10:56;;;;;;;25.17;12.50;;;;;;;-2.51;100.00;100319.30;1672374;84;21047;-82
2022/02/16 00:13:24;;;;;;;21.37;11.17;;;;;;;-2.53;100.00;100318.53;1694614;84;21103;-82
2022/02/16 00:15:51;;;;;;;21.60;12.10;;;;;;;-2.55;100.00;100313.31;1702912;84;20996;-83
2022/02/16 00:18:19;;;;;;;23.30;12.87;;;;;;;-2.56;100.00;100303.64;1714459;82;21036;-82
2022/02/16 00:20:46;;;;;;;26.07;12.83;;;;;;;-2.59;100.00;100300.30;1754614;82;20996;-83
2022/02/16 00:23:19;;;;;;;24.33;12.87;;;;;;;-2.65;100.00;100290.89;1754583;82;21092;-84
2022/02/16 00:25:45;;;;;;;25.37;12.70;;;;;;;-2.68;100.00;100278.66;1754604;82;20981;-82
2022/02/16 00:28:17;;;;;;;25.73;13.13;;;;;;;-2.69;100.00;100270.34;1754474;82;21036;-84
2022/02/16 00:30:45;;;;;;;25.97;13.70;;;;;;;-2.71;100.00;100261.64;1754640;82;21057;-83
2022/02/16 00:33:13;;;;;;;24.70;12.87;;;;;;;-2.71;100.00;100268.25;1754285;82;20997;-83
2022/02/16 00:35:42;;;;;;;23.97;13.20;;;;;;;-2.73;100.00;100262.64;1754650;82;21046;-83
2022/02/16 00:38:09;;;;;;;27.20;12.80;;;;;;;-2.75;100.00;100264.52;1723591;82;21016;-84
2022/02/16 00:40:38;;;;;;;24.93;13.60;;;;;;;-2.77;100.00;100257.97;1754645;82;21070;-82
2022/02/16 00:43:05;;;;;;;24.87;13.17;;;;;;;-2.79;100.00;100253.71;1754458;82;21067;-83
2022/02/16 00:45:33;;;;;;;27.03;12.73;;;;;;;-2.85;100.00;100248.28;1754346;82;21042;-83
2022/02/16 00:48:00;;;;;;;27.43;13.30;;;;;;;-2.89;100.00;100244.06;1754531;82;21084;-83
2022/02/16 00:50:29;;;;;;;24.37;13.50;;;;;;;-2.94;100.00;100235.06;1723516;82;21025;-82
2022/02/16 00:52:56;;;;;;;26.47;13.07;;;;;;;-2.98;100.00;100230.00;1754560;82;21147;-82
2022/02/16 00:55:31;;;;;;;25.00;13.20;;;;;;;-3.02;100.00;100225.33;1754562;82;20992;-83
2022/02/16 00:57:58;;;;;;;26.80;12.77;;;;;;;-3.06;100.00;100219.34;1754557;82;21044;-83
2022/02/16 01:00:26;;;;;;;24.30;13.97;;;;;;;-3.11;100.00;100208.62;1754543;82;21000;-84
2022/02/16 01:02:53;;;;;;;27.80;14.53;;;;;;;-3.12;100.00;100213.52;1754552;82;21060;-83
2022/02/16 01:05:21;;;;;;;27.33;14.30;;;;;;;-3.15;100.00;100211.90;1754065;82;21617;-83
2022/02/16 01:07:48;;;;;;;28.47;14.93;;;;;;;-3.17;100.00;100213.77;1754308;82;21016;-84
2022/02/16 01:10:15;;;;;;;28.37;14.97;;;;;;;-3.16;100.00;100214.14;1754216;82;21020;-83
2022/02/16 01:12:46;;;;;;;28.73;15.80;;;;;;;-3.14;100.00;100206.98;1754208;82;21302;-83
2022/02/16 01:15:13;;;;;;;30.10;16.33;;;;;;;-3.13;100.00;100198.59;1754078;82;21024;-84
2022/02/16 01:17:45;;;;;;;27.63;15.93;;;;;;;-3.12;100.00;100193.20;1754072;82;21051;-84
2022/02/16 01:20:20;;;;;;;28.33;15.40;;;;;;;-3.09;100.00;100190.88;1703499;84;21053;-84
2022/02/16 01:22:49;;;;;;;29.27;16.70;;;;;;;-3.08;100.00;100179.34;1703493;83;21057;-83
2022/02/16 01:25:18;;;;;;;32.37;17.63;;;;;;;-3.06;100.00;100177.50;1696422;84;21002;-83
2022/02/16 01:27:45;;;;;;;30.37;16.67;;;;;;;-3.08;100.00;100175.38;1704584;84;21089;-83
2022/02/16 01:30:13;;;;;;;29.33;16.90;;;;;;;-3.09;100.00;100164.42;1704772;84;21022;-84
2022/02/16 01:32:42;;;;;;;28.47;15.93;;;;;;;-3.12;100.00;100159.28;1703595;84;20978;-84
2022/02/16 01:35:11;;;;;;;27.07;15.63;;;;;;;-3.16;100.00;100151.98;1704391;84;21069;-83
2022/02/16 01:37:38;;;;;;;27.47;15.53;;;;;;;-3.18;100.00;100147.72;1704607;84;21065;-83
2022/02/16 01:40:06;;;;;;;25.60;15.40;;;;;;;-3.22;100.00;100139.09;1704522;84;21090;-83
2022/02/16 01:42:36;;;;;;;26.87;15.40;;;;;;;-3.26;100.00;100130.91;1704369;84;21077;-83
2022/02/16 01:45:09;;;;;;;23.93;13.47;;;;;;;-3.32;100.00;100129.93;1703151;84;21066;-83
2022/02/16 01:47:40;;;;;;;23.40;13.77;;;;;;;-3.37;100.00;100131.48;1704562;84;21084;-83
2022/02/16 01:50:08;;;;;;;26.03;14.63;;;;;;;-3.40;100.00;100126.82;1704588;84;21034;-82
2022/02/16 01:52:35;;;;;;;25.57;14.17;;;;;;;-3.46;100.00;100124.87;1704570;84;21006;-83
2022/02/16 01:55:02;;;;;;;25.83;14.77;;;;;;;-3.46;100.00;100122.71;1704605;84;21046;-83
2022/02/16 01:57:31;;;;;;;28.67;15.07;;;;;;;-3.46;100.00;100114.78;1704635;84;21053;-82
2022/02/16 02:00:00;;;;;;;24.07;14.93;;;;;;;-3.47;100.00;100109.09;1703387;84;21543;-82
2022/02/16 02:02:46;;;;;;;28.40;15.67;;;;;;;-3.46;100.00;100110.81;1704482;84;21042;-82
2022/02/16 02:05:18;;;;;;;30.00;16.70;;;;;;;-3.45;100.00;100097.52;1609912;88;21092;-84
2022/02/16 02:07:46;;;;;;;28.63;16.50;;;;;;;-3.41;100.00;100091.60;1609910;89;21029;-83
2022/02/16 02:10:16;;;;;;;30.03;15.97;;;;;;;-3.35;100.00;100083.81;1587901;89;21140;-82
2022/02/16 02:12:48;;;;;;;29.03;15.53;;;;;;;-3.31;100.00;100077.41;1610041;89;21073;-84
2022/02/16 02:15:23;;;;;;;25.70;14.47;;;;;;;-3.28;100.00;100057.42;1609937;89;21041;-84
2022/02/16 02:17:59;;;;;;;27.47;15.60;;;;;;;-3.24;100.00;100044.41;1569287;89;21077;-84
2022/02/16 02:20:29;;;;;;;27.20;15.80;;;;;;;-3.17;100.00;100011.42;1608924;89;21237;-84
2022/02/16 02:22:57;;;;;;;27.13;14.23;;;;;;;-3.14;100.00;99998.01;1587262;89;21117;-83
2022/02/16 02:25:24;;;;;;;25.97;14.23;;;;;;;-3.11;100.00;99989.06;1587285;89;21061;-85
2022/02/16 02:27:52;;;;;;;28.30;14.90;;;;;;;-3.07;100.00;99969.43;1588437;89;21078;-83
2022/02/16 02:30:19;;;;;;;24.77;13.30;;;;;;;-3.07;100.00;99955.72;1609225;89;21022;-83
2022/02/16 02:32:48;;;;;;;26.60;14.27;;;;;;;-3.04;100.00;99947.26;1609318;89;21138;-84
2022/02/16 02:35:28;;;;;;;21.43;12.60;;;;;;;-3.03;100.00;99926.46;1609172;89;21221;-85
2022/02/16 02:37:56;;;;;;;21.70;12.07;;;;;;;-3.03;100.00;99913.23;1609569;89;21090;-84
2022/02/16 02:40:23;;;;;;;22.53;12.10;;;;;;;-3.04;100.00;99883.77;1609363;89;21039;-83
2022/02/16 02:42:50;;;;;;;22.10;11.80;;;;;;;-3.06;100.00;99871.95;1648325;86;21121;-84
2022/02/16 02:45:19;;;;;;;22.67;11.97;;;;;;;-3.10;100.00;99842.63;1676529;86;21104;-84
2022/02/16 02:47:48;;;;;;;21.33;11.70;;;;;;;-3.11;100.00;99815.33;1676342;86;21125;-84
2022/02/16 02:50:15;;;;;;;21.23;11.70;;;;;;;-3.08;100.00;99797.09;1676589;86;21077;-82
2022/02/16 02:52:43;;;;;;;24.77;13.87;;;;;;;-3.08;100.00;99777.25;1676690;86;21061;-84
2022/02/16 02:55:12;;;;;;;22.90;12.90;;;;;;;-3.07;100.00;99760.45;1676526;86;21098;-83
2022/02/16 02:57:40;;;;;;;27.97;15.20;;;;;;;-3.02;100.00;99752.25;1676474;86;21116;-83
2022/02/16 03:00:10;;;;;;;27.73;16.90;;;;;;;-3.02;100.00;99720.52;1676611;86;21100;-84
2022/02/16 03:02:38;;;;;;;29.57;16.10;;;;;;;-3.02;100.00;99690.93;1692742;84;21038;-84
2022/02/16 03:05:06;;;;;;;27.23;15.77;;;;;;;-3.01;100.00;99665.31;1693957;84;21068;-84
2022/02/16 03:07:33;;;;;;;27.17;16.20;;;;;;;-3.03;100.00;99625.73;1717547;84;21034;-85
2022/02/16 03:10:00;;;;;;;26.93;14.90;;;;;;;-3.05;100.00;99597.20;1717573;84;21045;-85
2022/02/16 03:12:27;;;;;;;25.37;14.57;;;;;;;-3.06;100.00;99548.75;1718199;84;21006;-82
2022/02/16 03:14:54;;;;;;;25.17;13.97;;;;;;;-3.06;100.00;99499.81;1745088;81;21067;-82
2022/02/16 03:17:21;;;;;;;22.53;12.33;;;;;;;-3.08;100.00;99400.33;1753150;82;21000;-82
2022/02/16 03:19:49;;;;;;;22.90;12.20;;;;;;;-3.07;100.00;99293.11;1736950;81;21038;-82
2022/02/16 03:22:16;;;;;;;21.63;11.80;;;;;;;-3.12;100.00;99164.80;1733830;83;21136;-83
2022/02/16 03:24:44;;;;;;;21.17;12.10;;;;;;;-3.24;100.00;99027.66;1733549;83;21113;-84
2022/02/16 03:27:11;;;;;;;21.63;11.80;;;;;;;-3.27;100.00;98907.11;1733889;83;21002;-84
2022/02/16 03:29:39;;;;;;;23.83;12.80;;;;;;;-3.25;100.00;98912.30;1666359;86;21085;-84
2022/02/16 03:32:10;;;;;;;20.93;11.23;;;;;;;-3.28;100.00;98903.25;1666634;86;21092;-82
2022/02/16 03:34:38;;;;;;;21.63;11.90;;;;;;;-3.26;100.00;98906.17;1666954;86;21086;-86
2022/02/16 03:37:05;;;;;;;24.83;12.10;;;;;;;-3.23;100.00;98894.52;1671728;86;21050;-84
2022/02/16 03:39:32;;;;;;;25.70;13.10;;;;;;;-3.19;100.00;98885.88;1671680;86;21075;-83
2022/02/16 03:42:02;;;;;;;22.37;12.00;;;;;;;-3.17;100.00;98882.64;1666707;86;21057;-84
2022/02/16 03:44:30;;;;;;;22.17;12.57;;;;;;;-3.19;100.00;98884.07;1666869;86;21050;-84
2022/02/16 03:46:58;;;;;;;24.93;13.40;;;;;;;-3.19;100.00;98875.30;1666699;86;21074;-84
2022/02/16 03:49:25;;;;;;;24.17;12.67;;;;;;;-3.16;100.00;98865.34;1666652;86;21046;-84
2022/02/16 03:51:54;;;;;;;24.87;13.57;;;;;;;-3.12;100.00;98858.86;1666658;86;21033;-84
2022/02/16 03:54:22;;;;;;;23.00;12.60;;;;;;;-3.09;100.00;98853.84;1666476;86;21073;-84
2022/02/16 03:56:55;;;;;;;24.20;13.30;;;;;;;-3.04;100.00;98850.87;1666582;86;21069;-83
2022/02/16 03:59:23;;;;;;;24.30;13.20;;;;;;;-3.02;100.00;98836.56;1666477;85;21002;-85
2022/02/16 04:02:01;;;;;;;22.80;12.73;;;;;;;-3.01;100.00;98836.07;1616237;89;21057;-85
2022/02/16 04:04:28;;;;;;;22.97;12.80;;;;;;;-2.98;100.00;98824.78;1563270;92;21147;-84
2022/02/16 04:06:55;;;;;;;20.90;11.20;;;;;;;-2.96;100.00;98821.54;1575370;90;21030;-84
2022/02/16 04:09:24;;;;;;;21.30;11.70;;;;;;;-2.96;100.00;98820.22;1591048;90;21065;-84
2022/02/16 04:11:53;;;;;;;20.97;11.33;;;;;;;-3.00;100.00;98816.12;1590591;90;21115;-85
2022/02/16 04:14:20;;;;;;;21.63;12.70;;;;;;;-2.97;100.00;98813.75;1590186;90;21110;-84
2022/02/16 04:16:47;;;;;;;23.40;13.07;;;;;;;-2.97;100.00;98804.48;1590248;90;21085;-84
2022/02/16 04:19:15;;;;;;;27.80;13.47;;;;;;;-2.97;100.00;98802.67;1590022;89;21141;-85
2022/02/16 04:21:42;;;;;;;25.57;14.20;;;;;;;-2.97;100.00;98804.00;1589965;90;21118;-86
2022/02/16 04:24:10;;;;;;;35.60;22.87;;;;;;;-2.97;100.00;98793.91;1590124;90;21157;-83
2022/02/16 04:26:37;;;;;;;29.60;18.67;;;;;;;-2.95;100.00;98792.81;1590361;90;21157;-83
2022/02/16 04:29:04;;;;;;;28.13;16.57;;;;;;;-2.90;100.00;98781.91;1583967;90;21608;-83
2022/02/16 04:31:33;;;;;;;30.03;18.13;;;;;;;-2.85;100.00;98782.40;1588743;90;21081;-81
2022/02/16 04:34:00;;;;;;;26.57;15.37;;;;;;;-2.83;100.00;98766.37;1589778;90;21050;-81
2022/02/16 04:36:26;;;;;;;27.07;16.23;;;;;;;-2.79;100.00;98763.88;1668214;86;21633;-82
2022/02/16 04:38:56;;;;;;;23.83;14.10;;;;;;;-2.75;100.00;98762.19;1694583;83;21092;-81
2022/02/16 04:41:23;;;;;;;23.67;13.27;;;;;;;-2.72;100.00;98758.48;1733489;83;21071;-81
2022/02/16 04:43:50;;;;;;;27.40;15.80;;;;;;;-2.73;100.00;98758.94;1733672;83;21022;-81
2022/02/16 04:46:17;;;;;;;26.30;15.13;;;;;;;-2.72;100.00;98762.45;1733850;83;21025;-81
2022/02/16 04:48:44;;;;;;;28.07;15.87;;;;;;;-2.70;100.00;98760.03;1733806;83;21014;-83
2022/02/16 04:51:11;;;;;;;29.40;16.70;;;;;;;-2.68;100.00;98763.89;1733434;83;21050;-80
2022/02/16 04:53:38;;;;;;;29.57;15.80;;;;;;;-2.66;100.00;98755.34;1700614;83;21034;-82
2022/02/16 04:56:06;;;;;;;28.57;14.90;;;;;;;-2.64;100.00;98749.45;1733742;83;21034;-81
2022/02/16 04:58:34;;;;;;;29.63;16.50;;;;;;;-2.58;100.00;98743.70;1733506;83;20987;-82
2022/02/16 05:01:02;;;;;;;31.60;17.00;;;;;;;-2.53;100.00;98724.33;1733671;83;21049;-81
2022/02/16 05:03:30;;;;;;;34.53;16.67;;;;;;;-2.49;100.00;98721.80;1754995;81;21034;-82
2022/02/16 05:05:59;;;;;;;36.07;17.80;;;;;;;-2.43;100.00;98717.81;1761731;81;21083;-82
2022/02/16 05:08:27;;;;;;;34.00;16.87;;;;;;;-2.37;100.00;98720.00;1761977;81;21011;-82
2022/02/16 05:10:54;;;;;;;32.53;16.77;;;;;;;-2.32;100.00;98713.86;1761878;81;21487;-80
2022/02/16 05:13:22;;;;;;;32.50;18.10;;;;;;;-2.30;100.00;98715.89;1757795;80;20984;-82
2022/02/16 05:15:49;;;;;;;34.93;18.53;;;;;;;-2.33;100.00;98725.40;1761276;81;21008;-81
2022/02/16 05:18:17;;;;;;;34.10;18.33;;;;;;;-2.36;100.00;98726.95;1761781;81;21509;-81
2022/02/16 05:20:48;;;;;;;37.53;19.03;;;;;;;-2.33;100.00;98728.05;1696758;84;21054;-81
2022/02/16 05:23:16;;;;;;;49.13;23.50;;;;;;;-2.31;100.00;98732.73;1643722;86;21607;-82
2022/02/16 05:25:43;;;;;;;44.17;21.40;;;;;;;-2.27;100.00;98715.28;1696926;85;21026;-82
2022/02/16 05:28:11;;;;;;;41.20;20.60;;;;;;;-2.23;100.00;98722.88;1673619;85;21134;-82
2022/02/16 05:30:39;;;;;;;41.03;20.90;;;;;;;-2.21;100.00;98720.08;1666137;86;21055;-83
2022/02/16 05:33:07;;;;;;;38.67;21.10;;;;;;;-2.20;100.00;98708.05;1698029;85;21125;-81
2022/02/16 05:35:34;;;;;;;46.13;25.63;;;;;;;-2.15;100.00;98710.34;1666723;85;21083;-82
2022/02/16 05:38:01;;;;;;;45.67;24.20;;;;;;;-2.12;100.00;98701.66;1698181;83;21059;-82
2022/02/16 05:40:29;;;;;;;43.53;23.57;;;;;;;-2.07;100.00;98707.92;1666965;85;21043;-82
2022/02/16 05:42:59;;;;;;;43.07;23.53;;;;;;;-2.01;100.00;98702.61;1698041;85;21054;-81
2022/02/16 05:45:28;;;;;;;38.30;20.87;;;;;;;-1.95;100.00;98695.47;1666818;86;21043;-82
2022/02/16 05:47:57;;;;;;;38.47;20.53;;;;;;;-1.91;100.00;98688.48;1697997;85;21079;-81
2022/02/16 05:50:24;;;;;;;36.57;19.23;;;;;;;-1.86;100.00;98684.61;1666822;86;21516;-81
2022/02/16 05:52:51;;;;;;;36.87;21.13;;;;;;;-1.84;100.00;98687.52;1697951;85;21086;-82
2022/02/16 05:55:19;;;;;;;40.17;22.13;;;;;;;-1.81;100.00;98686.41;1674503;85;21083;-82
2022/02/16 05:57:46;;;;;;;43.23;24.20;;;;;;;-1.80;100.00;98692.08;1677703;85;21098;-83
2022/02/16 06:00:16;;;;;;;42.80;24.13;;;;;;;-1.77;100.00;98687.36;1698640;85;21065;-81
2022/02/16 06:02:43;;;;;;;48.00;28.77;;;;;;;-1.73;100.00;98680.00;1698733;84;21013;-76
2022/02/16 06:05:12;;;;;;;47.30;29.30;;;;;;;-1.69;100.00;98669.98;1697786;85;21512;-79
2022/02/16 06:07:39;;;;;;;47.17;28.40;;;;;;;-1.67;100.00;98666.23;1697907;85;21357;-77
2022/02/16 06:10:08;;;;;;;48.93;27.20;;;;;;;-1.65;100.00;98655.01;1697918;84;21061;-78
2022/02/16 06:12:41;;;;;;;40.40;23.13;;;;;;;-1.60;100.00;98656.80;1697970;84;21061;-78
2022/02/16 06:15:09;;;;;;;36.67;20.70;;;;;;;-1.55;100.00;98650.63;1697709;85;21053;-80
2022/02/16 06:17:38;;;;;;;40.17;21.80;;;;;;;-1.50;100.00;98646.78;1697618;85;21041;-81
2022/02/16 06:20:08;;;;;;;41.53;23.57;;;;;;;-1.47;100.00;98648.69;1673412;85;21050;-78
2022/02/16 06:22:40;;;;;;;44.47;25.37;;;;;;;-1.46;100.00;98658.80;1661077;86;21171;-78
2022/02/16 06:25:08;;;;;;;42.47;26.10;;;;;;;-1.43;100.00;98654.08;1665790;86;21084;-76
2022/02/16 06:27:36;;;;;;;43.50;25.87;;;;;;;-1.38;100.00;98649.23;1666500;86;21057;-79
2022/02/16 06:30:06;;;;;;;45.47;24.90;;;;;;;-1.34;100.00;98640.03;1666401;86;21040;-78
2022/02/16 06:32:40;;;;;;;43.47;23.23;;;;;;;-1.30;100.00;98618.07;1622481;88;21504;-75
2022/02/16 06:35:07;;;;;;;42.17;22.00;;;;;;;-1.29;100.00;98586.62;1653626;87;21077;-77
2022/02/16 06:37:36;;;;;;;50.00;25.63;;;;;;;-1.26;100.00;98573.06;1645819;87;21406;-78
2022/02/16 06:40:09;;;;;;;55.23;27.80;;;;;;;-1.24;100.00;98563.66;1643654;87;21153;-80
2022/02/16 06:42:40;;;;;;;47.53;24.72;;;;;;;-1.23;100.00;98573.31;1624574;87;21101;-81
2022/02/16 06:45:10;;;;;;;58.10;27.90;;;;;;;-1.20;100.00;98580.52;1644422;87;21523;-81
2022/02/16 06:47:40;;;;;;;60.30;28.67;;;;;;;-1.18;100.00;98582.55;1556508;91;21226;-78
2022/02/16 06:50:09;;;;;;;68.70;32.57;;;;;;;-1.17;100.00;98590.00;1550996;93;21054;-76
2022/02/16 06:52:36;;;;;;;72.13;35.00;;;;;;;-1.16;100.00;98594.35;1551113;93;21090;-77
2022/02/16 06:55:04;;;;;;;69.63;33.67;;;;;;;-1.19;100.00;98590.63;1551178;93;21113;-79
2022/02/16 06:57:31;;;;;;;67.77;32.13;;;;;;;-1.20;100.00;98595.11;1550949;93;21145;-77
2022/02/16 07:00:02;;;;;;;66.67;31.93;;;;;;;-1.21;100.00;98599.20;1551066;93;21098;-79
2022/02/16 07:02:31;;;;;;;68.60;33.07;;;;;;;-1.21;100.00;98608.49;1548428;92;21037;-78
2022/02/16 07:04:59;;;;;;;76.13;37.00;;;;;;;-1.22;100.00;98616.08;1530284;94;21119;-80
2022/02/16 07:07:29;;;;;;;74.87;36.23;;;;;;;-1.22;100.00;98612.97;1530450;94;21204;-80
2022/02/16 07:09:55;;;;;;;86.87;43.90;;;;;;;-1.19;100.00;98611.38;1530600;94;21054;-80
2022/02/16 07:12:24;;;;;;;70.83;35.30;;;;;;;-1.16;100.00;98581.92;1530772;94;21051;-83
2022/02/16 07:14:56;;;;;;;76.87;34.77;;;;;;;-1.11;100.00;98563.46;1530954;94;21098;-80
2022/02/16 07:17:26;;;;;;;93.47;42.33;;;;;;;-1.10;100.00;98581.88;1530842;94;21094;-81
2022/02/16 07:19:54;;;;;;;81.20;35.30;;;;;;;-1.06;100.00;98576.67;1532172;94;21143;-80
2022/02/16 07:22:22;;;;;;;82.77;37.10;;;;;;;-1.02;100.00;98576.75;1532294;92;21094;-79
2022/02/16 07:24:51;;;;;;;75.17;34.33;;;;;;;-0.96;100.00;98576.70;1555485;92;21592;-80
2022/02/16 07:27:20;;;;;;;72.67;33.10;;;;;;;-0.90;100.00;98576.18;1555691;92;21110;-75
2022/02/16 07:29:50;;;;;;;76.23;38.40;;;;;;;-0.80;100.00;98574.88;1578407;89;21098;-75
2022/02/16 07:32:17;;;;;;;74.10;35.77;;;;;;;-0.68;100.00;98561.84;1642222;87;21069;-77
2022/02/16 07:34:47;;;;;;;72.27;35.47;;;;;;;-0.55;100.00;98554.95;1642623;87;21571;-80
2022/02/16 07:37:14;;;;;;;69.80;34.40;;;;;;;-0.46;100.00;98550.17;1642789;87;21069;-80
2022/02/16 07:39:42;;;;;;;63.60;31.97;;;;;;;-0.37;100.00;98548.51;1642650;87;21073;-78
2022/02/16 07:42:09;;;;;;;70.37;39.57;;;;;;;-0.29;100.00;98573.04;1642660;87;21042;-78
2022/02/16 07:44:50;;;;;;;75.47;40.07;;;;;;;-0.25;100.00;98563.34;1639478;87;21117;-79
2022/02/16 07:47:20;;;;;;;84.20;37.50;;;;;;;-0.22;100.00;98548.92;1642531;87;21118;-79
2022/02/16 07:49:51;;;;;;;106.43;46.13;;;;;;;-0.18;100.00;98556.12;1646880;85;21018;-79
2022/02/16 07:52:37;;;;;;;96.87;41.67;;;;;;;-0.11;100.00;98560.73;1644793;87;21022;-80
2022/02/16 07:55:06;;;;;;;71.60;34.33;;;;;;;-0.02;100.00;98547.96;1581318;91;21543;-80
2022/02/16 07:57:35;;;;;;;82.33;37.60;;;;;;;0.06;100.00;98545.09;1581206;88;21205;-79
2022/02/16 08:00:03;;;;;;;62.13;32.27;;;;;;;0.12;100.00;98544.52;1612340;88;20998;-79
2022/02/16 08:02:33;;;;;;;53.97;27.87;;;;;;;0.22;100.00;98552.49;1593619;90;21157;-79
2022/02/16 08:05:00;;;;;;;51.67;28.67;;;;;;;0.29;100.00;98561.58;1604721;89;21182;-80
2022/02/16 08:07:29;;;;;;;48.83;27.63;;;;;;;0.26;100.00;98565.34;1607594;89;21042;-81
2022/02/16 08:09:58;;;;;;;51.13;28.57;;;;;;;0.23;100.00;98575.42;1604697;88;21384;-80
2022/02/16 08:12:25;;;;;;;74.33;37.93;;;;;;;0.21;100.00;98569.41;1602807;88;21066;-76
2022/02/16 08:14:53;;;;;;;62.17;30.80;;;;;;;0.26;100.00;98579.13;1599444;88;21058;-77
2022/02/16 08:17:21;;;;;;;56.30;30.13;;;;;;;0.41;100.00;98566.23;1608600;88;21142;-80
2022/02/16 08:19:49;;;;;;;64.23;35.43;;;;;;;0.60;100.00;98566.19;1604662;87;21038;-79
2022/02/16 08:22:16;;;;;;;55.70;30.63;;;;;;;0.75;100.00;98560.77;1598188;89;21027;-81
2022/02/16 08:24:43;;;;;;;52.47;28.93;;;;;;;0.82;100.00;98560.20;1608198;89;21070;-80
2022/02/16 08:27:12;;;;;;;48.90;26.40;;;;;;;0.88;100.00;98554.28;1595994;89;21036;-79
2022/02/16 08:29:41;;;;;;;54.33;29.80;;;;;;;0.91;100.00;98560.66;1613033;88;21064;-78
2022/02/16 08:32:10;;;;;;;69.73;39.30;;;;;;;0.85;100.00;98570.06;1604735;88;21044;-82
2022/02/16 08:34:40;;;;;;;69.03;35.77;;;;;;;0.85;100.00;98566.08;1604758;89;21047;-79
2022/02/16 08:37:13;;;;;;;55.05;29.60;;;;;;;0.92;100.00;98572.95;1607977;89;21058;-79
2022/02/16 08:39:39;;;;;;;82.83;42.60;;;;;;;1.03;100.00;98569.30;1582518;90;21054;-77
2022/02/16 08:42:06;;;;;;;61.40;36.80;;;;;;;1.10;100.00;98576.55;1606446;88;21079;-80
2022/02/16 08:44:33;;;;;;;55.33;32.03;;;;;;;1.16;100.00;98562.31;1623080;88;21046;-79
2022/02/16 08:47:00;;;;;;;68.00;43.60;;;;;;;1.21;100.00;98557.38;1602814;88;21047;-81
2022/02/16 08:49:27;;;;;;;65.50;36.43;;;;;;;1.28;100.00;98562.46;1600690;89;21109;-82
2022/02/16 08:51:55;;;;;;;54.87;28.77;;;;;;;1.39;100.00;98565.41;1640583;82;21013;-76
2022/02/16 08:54:22;;;;;;;52.20;28.23;;;;;;;1.48;100.00;98553.36;1740393;82;21058;-81
2022/02/16 08:56:50;;;;;;;48.37;25.40;;;;;;;1.56;100.00;98551.30;1740411;82;21100;-81
2022/02/16 08:59:17;;;;;;;46.27;24.40;;;;;;;1.65;100.00;98557.55;1740647;82;21117;-79
2022/02/16 09:01:44;;;;;;;49.50;26.20;;;;;;;1.74;100.00;98560.64;1740785;82;21030;-79
2022/02/16 09:04:13;;;;;;;72.30;39.03;;;;;;;1.86;100.00;98570.56;1740640;82;20998;-81
2022/02/16 09:07:27;;;;;;;54.10;29.13;;;;;;;1.97;100.00;98565.53;1740549;82;20986;-79
2022/02/16 09:09:09;;;;;;;47.33;25.70;;;;;;;2.07;100.00;98566.27;1735294;82;21073;-81
2022/02/16 09:11:35;;;;;;;42.90;24.63;;;;;;;2.20;100.00;98566.73;1737212;82;21021;-77
2022/02/16 09:14:04;;;;;;;51.10;29.90;;;;;;;2.36;100.00;98557.20;1720788;82;21074;-77
2022/02/16 09:16:33;;;;;;;48.00;27.70;;;;;;;2.60;100.00;98552.04;1736947;82;21034;-80
2022/02/16 09:18:59;;;;;;;43.00;24.47;;;;;;;2.96;100.00;98548.41;1725665;83;20966;-77
2022/02/16 09:21:27;;;;;;;41.57;23.33;;;;;;;3.31;100.00;98552.74;1739175;81;21157;-78
2022/02/16 09:23:54;;;;;;;45.57;24.60;;;;;;;3.56;100.00;98567.02;1738418;82;20986;-76
2022/02/16 09:26:28;;;;;;;40.20;23.57;;;;;;;3.66;100.00;98590.92;1733957;82;20987;-79
2022/02/16 09:28:55;;;;;;;40.73;22.20;;;;;;;3.54;100.00;98637.17;1733242;82;21488;-79
2022/02/16 09:31:23;;;;;;;40.20;21.37;;;;;;;3.48;100.00;98676.55;1756455;81;21065;-77
2022/02/16 09:33:51;;;;;;;40.27;23.03;;;;;;;3.49;100.00;98716.13;1733091;82;21033;-80
2022/02/16 09:36:18;;;;;;;39.10;21.17;;;;;;;3.30;100.00;98766.13;1736456;82;21053;-80
2022/02/16 09:38:44;;;;;;;41.43;24.70;;;;;;;3.18;100.00;98810.11;1734851;82;21076;-83
2022/02/16 09:41:11;;;;;;;42.43;22.77;;;;;;;3.18;100.00;98846.17;1728359;83;21030;-77
2022/02/16 09:43:40;;;;;;;55.73;23.87;;;;;;;3.21;100.00;98877.93;1734962;82;21037;-81
2022/02/16 09:46:08;;;;;;;46.60;23.33;;;;;;;3.24;100.00;98889.66;1733391;82;21041;-78
2022/02/16 09:48:35;;;;;;;41.50;23.37;;;;;;;3.32;100.00;98908.41;1732592;82;21034;-80
2022/02/16 09:51:03;;;;;;;42.97;22.80;;;;;;;3.42;100.00;98921.21;1732789;82;21022;-82
2022/02/16 09:53:32;;;;;;;45.60;23.80;;;;;;;3.46;100.00;98931.61;1739007;82;21543;-80
2022/02/16 09:56:00;;;;;;;45.77;23.93;;;;;;;3.49;100.00;98959.34;1734460;81;21042;-81
2022/02/16 09:58:27;;;;;;;47.33;23.77;;;;;;;3.46;100.00;98979.20;1743786;81;21022;-82
2022/02/16 10:01:08;;;;;;;39.43;20.43;;;;;;;3.48;100.00;99000.44;1738057;81;21641;-81
2022/02/16 10:03:35;;;;;;;42.53;22.10;;;;;;;3.49;100.00;99020.81;1750264;81;21080;-81
2022/02/16 10:06:03;;;;;;;46.47;22.63;;;;;;;3.48;100.00;99041.87;1733523;81;21021;-79
2022/02/16 10:08:46;;;;;;;44.17;21.00;;;;;;;3.52;100.00;99051.26;1739060;82;21006;-77
2022/02/16 10:11:15;;;;;;;59.33;23.17;;;;;;;3.57;100.00;99067.69;1665393;85;21043;-77
2022/02/16 10:13:43;;;;;;;38.97;21.80;;;;;;;3.59;100.00;99070.58;1663706;86;21587;-79
2022/02/16 10:16:10;;;;;;;35.93;19.10;;;;;;;3.66;100.00;99084.66;1672647;85;21105;-80
2022/02/16 10:19:00;;;;;;;42.60;22.30;;;;;;;3.72;100.00;99094.27;1665782;85;21110;-78
2022/02/16 10:21:27;;;;;;;38.30;18.20;;;;;;;3.72;100.00;99105.44;1648242;86;21070;-77
2022/02/16 10:23:54;;;;;;;39.77;20.30;;;;;;;3.68;100.00;99114.25;1665702;85;21053;-80
2022/02/16 10:26:21;;;;;;;37.30;18.23;;;;;;;3.70;100.00;99129.67;1665231;86;21015;-82
2022/02/16 10:28:51;;;;;;;42.93;21.23;;;;;;;3.78;100.00;99135.60;1614612;87;21062;-79
2022/02/16 10:31:21;;;;;;;38.43;20.13;;;;;;;3.85;100.00;99135.34;1635150;88;21043;-80
2022/02/16 10:33:54;;;;;;;40.37;22.10;;;;;;;3.91;100.00;99141.45;1641947;86;21173;-78
2022/02/16 10:36:25;;;;;;;32.67;17.73;;;;;;;3.92;100.00;99144.45;1653306;86;21054;-80
2022/02/16 10:39:12;;;;;;;36.33;17.80;;;;;;;3.94;100.00;99150.99;1636114;87;21058;-80
2022/02/16 10:41:53;;;;;;;31.73;18.40;;;;;;;3.89;100.00;99171.48;1659424;86;21082;-78
2022/02/16 10:44:31;;;;;;;33.00;17.50;;;;;;;3.87;100.00;99184.68;1672569;85;21585;-82
2022/02/16 10:47:11;;;;;;;31.17;16.50;;;;;;;3.87;100.00;99190.86;1685770;85;21032;-79
2022/02/16 10:49:46;;;;;;;37.70;20.07;;;;;;;3.88;100.00;99204.59;1692662;84;21030;-78
2022/02/16 10:52:16;;;;;;;32.87;18.67;;;;;;;3.85;100.00;99220.09;1677107;86;21597;-80
2022/02/16 10:55:00;;;;;;;35.97;19.50;;;;;;;3.76;100.00;99248.06;1677051;86;21115;-75
2022/02/16 10:57:28;;;;;;;37.93;18.40;;;;;;;3.71;100.00;99273.05;1676010;86;21032;-79
2022/02/16 10:59:57;;;;;;;37.97;18.37;;;;;;;3.71;100.00;99283.75;1648305;86;21120;-79
2022/02/16 11:02:25;;;;;;;32.37;17.80;;;;;;;3.73;100.00;99292.47;1667721;86;21103;-78
2022/02/16 11:04:54;;;;;;;41.17;18.97;;;;;;;3.67;100.00;99310.94;1667770;86;21024;-78
2022/02/16 11:07:23;;;;;;;30.40;18.17;;;;;;;3.60;100.00;99324.88;1660940;84;21054;-70
2022/02/16 11:09:55;;;;;;;35.30;19.43;;;;;;;3.60;100.00;99331.55;1674408;84;21097;-71
2022/02/16 11:12:22;;;;;;;48.13;22.10;;;;;;;3.57;100.00;99337.69;1673260;84;21100;-69
2022/02/16 11:14:48;;;;;;;35.63;19.53;;;;;;;3.59;100.00;99330.36;1667640;84;21059;-71
2022/02/16 11:17:20;;;;;;;38.90;20.03;;;;;;;3.64;100.00;99328.09;1672020;86;21065;-75